createdAt,value
2023-10-02T00:02:23.637Z,99836.03
2023-10-02T00:04:51.552Z,99833.47
2023-10-02T00:07:18.058Z,99836.16
2023-10-02T00:09:44.679Z,99827.13
2023-10-02T00:12:11.137Z,99827.81
2023-10-02T00:14:37.677Z,99820.44
2023-10-02T00:17:04.214Z,99818.94
2023-10-02T00:19:30.723Z,99814.25
2023-10-02T00:21:57.188Z,99820.50
2023-10-02T00:24:23.610Z,99822.72
2023-10-02T00:26:50.050Z,99824.88
2023-10-02T00:29:16.544Z,99821.75
2023-10-02T00:31:43.145Z,99825.72
2023-10-02T00:34:09.607Z,99820.28
2023-10-02T00:36:36.039Z,99813.41
2023-10-02T00:39:02.499Z,99817.91
2023-10-02T00:41:29.171Z,99820.91
2023-10-02T00:43:55.912Z,99819.06
2023-10-02T00:46:22.497Z,99812.81
2023-10-02T00:48:48.965Z,99819.56
2023-10-02T00:51:15.674Z,99823.91
2023-10-02T00:53:42.364Z,99825.06
2023-10-02T00:56:08.777Z,99820.81
2023-10-02T00:58:35.651Z,99825.78
2023-10-02T01:01:02.206Z,99825.25
2023-10-02T01:03:28.829Z,99821.38
2023-10-02T01:05:55.476Z,99828.41
2023-10-02T01:08:22.061Z,99832.50
2023-10-02T01:10:48.927Z,99831.03
2023-10-02T01:13:15.476Z,99840.75
2023-10-02T01:15:50.051Z,99838.56
2023-10-02T01:18:17.227Z,99834.72
2023-10-02T01:20:43.945Z,99837.38
2023-10-02T01:23:10.628Z,99838.13
2023-10-02T01:25:37.097Z,99836.06
2023-10-02T01:28:03.540Z,99831.69
2023-10-02T01:30:29.997Z,99835.22
2023-10-02T01:32:56.478Z,99835.22
2023-10-02T01:35:22.948Z,99843.31
2023-10-02T01:37:49.713Z,99839.06
2023-10-02T01:40:16.173Z,99839.44
2023-10-02T01:42:42.614Z,99835.31
2023-10-02T01:45:09.037Z,99835.78
2023-10-02T01:47:36.557Z,99836.19
2023-10-02T01:50:03.014Z,99835.72
2023-10-02T01:52:41.825Z,99839.03
2023-10-02T01:55:17.193Z,99836.56
2023-10-02T01:57:44.020Z,99826.88
2023-10-02T02:00:10.584Z,99826.09
2023-10-02T02:02:37.157Z,99831.13
2023-10-02T02:05:08.210Z,99834.53
2023-10-02T02:07:34.806Z,99828.00
2023-10-02T02:10:01.265Z,99828.47
2023-10-02T02:12:27.842Z,99835.00
2023-10-02T02:14:55.286Z,99839.25
2023-10-02T02:17:26.372Z,99832.53
2023-10-02T02:19:55.418Z,99829.75
2023-10-02T02:22:21.888Z,99831.47
2023-10-02T02:24:48.289Z,99830.06
2023-10-02T02:27:15.676Z,99828.34
2023-10-02T02:29:42.141Z,99829.84
2023-10-02T02:32:08.806Z,99835.81
2023-10-02T02:34:35.597Z,99836.06
2023-10-02T02:37:02.127Z,99837.97
2023-10-02T02:39:28.549Z,99840.63
2023-10-02T02:41:56.036Z,99835.75
2023-10-02T02:44:22.424Z,99840.13
2023-10-02T02:46:49.001Z,99841.72
2023-10-02T02:49:15.663Z,99840.56
2023-10-02T02:51:42.436Z,99837.69
2023-10-02T02:54:10.312Z,99839.28
2023-10-02T02:56:36.927Z,99838.75
2023-10-02T02:59:03.470Z,99837.59
2023-10-02T03:01:29.938Z,99843.34
2023-10-02T03:03:57.674Z,99844.00
2023-10-02T03:06:24.279Z,99839.00
2023-10-02T03:08:50.952Z,99842.75
2023-10-02T03:11:17.346Z,99849.66
2023-10-02T03:13:43.799Z,99842.53
2023-10-02T03:16:10.297Z,99844.34
2023-10-02T03:18:36.958Z,99841.63
2023-10-02T03:21:03.324Z,99836.13
2023-10-02T03:23:32.482Z,99821.22
2023-10-02T03:25:59.100Z,99833.63
2023-10-02T03:28:25.883Z,99830.78
2023-10-02T03:30:52.490Z,99814.84
2023-10-02T03:33:19.086Z,99823.69
2023-10-02T03:35:45.546Z,99818.63
2023-10-02T03:38:14.085Z,99822.88
2023-10-02T03:40:40.823Z,99827.81
2023-10-02T03:43:07.276Z,99813.38
2023-10-02T03:45:33.915Z,99825.38
2023-10-02T03:48:01.059Z,99824.28
2023-10-02T03:50:27.645Z,99820.34
2023-10-02T03:52:54.349Z,99828.09
2023-10-02T03:55:20.848Z,99827.16
2023-10-02T03:57:47.316Z,99820.28
2023-10-02T04:00:13.836Z,99817.41
2023-10-02T04:02:40.373Z,99821.97
2023-10-02T04:05:06.923Z,99825.91
2023-10-02T04:07:33.400Z,99826.44
2023-10-02T04:09:59.887Z,99819.97
2023-10-02T04:12:26.897Z,99819.75
2023-10-02T04:14:53.294Z,99821.44
2023-10-02T04:17:19.843Z,99822.19
2023-10-02T04:19:46.303Z,99827.41
2023-10-02T04:22:12.671Z,99831.88
2023-10-02T04:24:39.183Z,99830.06
2023-10-02T04:27:05.544Z,99835.28
2023-10-02T04:29:32.187Z,99835.28
2023-10-02T04:31:59.763Z,99831.88
2023-10-02T04:34:26.353Z,99828.34
2023-10-02T04:36:52.934Z,99837.41
2023-10-02T04:39:19.401Z,99836.47
2023-10-02T04:41:46.201Z,99834.75
2023-10-02T04:44:12.685Z,99833.78
2023-10-02T04:46:39.288Z,99844.56
2023-10-02T04:49:06.111Z,99836.88
2023-10-02T04:51:32.542Z,99833.28
2023-10-02T04:53:59.090Z,99833.34
2023-10-02T04:56:25.638Z,99843.78
2023-10-02T04:58:52.294Z,99839.22
2023-10-02T05:01:19.095Z,99844.31
2023-10-02T05:03:45.772Z,99841.66
2023-10-02T05:06:12.546Z,99853.06
2023-10-02T05:08:39.013Z,99849.44
2023-10-02T05:11:05.832Z,99845.72
2023-10-02T05:13:32.347Z,99855.81
2023-10-02T05:15:59.038Z,99858.38
2023-10-02T05:18:25.531Z,99859.34
2023-10-02T05:20:55.078Z,99864.66
2023-10-02T05:23:26.372Z,99854.13
2023-10-02T05:25:53.535Z,99852.31
2023-10-02T05:28:20.101Z,99857.63
2023-10-02T05:30:47.016Z,99859.34
2023-10-02T05:33:13.527Z,99855.81
2023-10-02T05:35:40.364Z,99859.97
2023-10-02T05:38:06.807Z,99860.81
2023-10-02T05:40:35.624Z,99866.91
2023-10-02T05:43:02.339Z,99859.66
2023-10-02T05:45:29.812Z,99872.88
2023-10-02T05:47:56.784Z,99867.44
2023-10-02T05:50:23.252Z,99866.47
2023-10-02T05:52:49.784Z,99870.63
2023-10-02T05:55:16.382Z,99875.72
2023-10-02T05:57:43.058Z,99874.66
2023-10-02T06:00:09.462Z,99881.47
2023-10-02T06:02:35.977Z,99869.75
2023-10-02T06:05:02.691Z,99877.53
2023-10-02T06:07:30.285Z,99874.84
2023-10-02T06:09:56.685Z,99879.97
2023-10-02T06:12:23.181Z,99879.78
2023-10-02T06:14:50.453Z,99887.09
2023-10-02T06:17:17.732Z,99888.50
2023-10-02T06:19:44.335Z,99890.84
2023-10-02T06:22:10.901Z,99889.78
2023-10-02T06:24:38.054Z,99884.78
2023-10-02T06:27:04.718Z,99894.69
2023-10-02T06:29:31.253Z,99890.44
2023-10-02T06:31:58.783Z,99887.31
2023-10-02T06:34:26.058Z,99885.81
2023-10-02T06:36:52.811Z,99888.16
2023-10-02T06:39:19.350Z,99886.75
2023-10-02T06:41:45.792Z,99889.13
2023-10-02T06:44:12.633Z,99895.94
2023-10-02T06:46:39.516Z,99886.66
2023-10-02T06:49:08.429Z,99890.56
2023-10-02T06:51:35.025Z,99886.94
2023-10-02T06:54:09.104Z,99888.72
2023-10-02T06:56:35.602Z,99892.63
2023-10-02T06:59:02.757Z,99891.09
2023-10-02T07:01:29.724Z,99895.13
2023-10-02T07:03:56.627Z,99890.75
2023-10-02T07:06:23.285Z,99897.91
2023-10-02T07:08:50.115Z,99902.66
2023-10-02T07:11:17.493Z,99901.72
2023-10-02T07:13:44.040Z,99903.44
2023-10-02T07:16:10.659Z,99903.94
2023-10-02T07:18:37.198Z,99902.38
2023-10-02T07:21:04.392Z,99903.53
2023-10-02T07:23:31.389Z,99902.13
2023-10-02T07:26:00.377Z,99899.97
2023-10-02T07:28:26.851Z,99905.78
2023-10-02T07:30:53.288Z,99896.59
2023-10-02T07:33:23.377Z,99889.19
2023-10-02T07:35:49.946Z,99896.72
2023-10-02T07:38:16.520Z,99899.25
2023-10-02T07:40:43.389Z,99894.78
2023-10-02T07:43:09.952Z,99902.47
2023-10-02T07:45:36.566Z,99899.19
2023-10-02T07:48:03.105Z,99897.75
2023-10-02T07:50:29.675Z,99894.34
2023-10-02T07:52:57.221Z,99887.50
2023-10-02T07:55:24.115Z,99894.53
2023-10-02T07:57:50.949Z,99884.06
2023-10-02T08:00:17.381Z,99893.09
2023-10-02T08:02:43.878Z,99895.50
2023-10-02T08:05:10.990Z,99893.69
2023-10-02T08:07:45.572Z,99896.34
2023-10-02T08:10:13.166Z,99892.09
2023-10-02T08:12:41.173Z,99890.41
2023-10-02T08:15:07.657Z,99887.97
2023-10-02T08:17:34.185Z,99897.47
2023-10-02T08:20:01.232Z,99890.63
2023-10-02T08:22:28.047Z,99904.25
2023-10-02T08:24:57.017Z,99904.13
2023-10-02T08:27:23.639Z,99903.75
2023-10-02T08:29:50.138Z,99897.94
2023-10-02T08:32:16.776Z,99894.03
2023-10-02T08:34:43.403Z,99897.56
2023-10-02T08:37:09.976Z,99896.97
2023-10-02T08:39:36.462Z,99891.09
2023-10-02T08:42:02.869Z,99888.81
2023-10-02T08:44:29.741Z,99893.44
2023-10-02T08:46:56.492Z,99889.66
2023-10-02T08:49:23.122Z,99892.59
2023-10-02T08:51:50.594Z,99889.53
2023-10-02T08:54:17.632Z,99891.34
2023-10-02T08:56:44.379Z,99887.13
2023-10-02T08:59:11.217Z,99886.25
2023-10-02T09:01:37.852Z,99888.09
2023-10-02T09:04:04.417Z,99886.84
2023-10-02T09:06:31.259Z,99880.19
2023-10-02T09:08:57.675Z,99876.50
2023-10-02T09:11:24.538Z,99871.38
2023-10-02T09:13:50.967Z,99880.13
2023-10-02T09:16:17.437Z,99866.72
2023-10-02T09:18:44.364Z,99867.50
2023-10-02T09:21:10.752Z,99860.25
2023-10-02T09:23:38.305Z,99861.09
2023-10-02T09:26:04.954Z,99864.69
2023-10-02T09:28:31.692Z,99861.19
2023-10-02T09:30:58.516Z,99855.94
2023-10-02T09:33:31.402Z,99856.84
2023-10-02T09:36:32.928Z,99852.28
2023-10-02T09:38:58.155Z,99858.22
2023-10-02T09:41:27.230Z,99857.41
2023-10-02T09:43:53.929Z,99851.72
2023-10-02T09:46:21.557Z,99853.91
2023-10-02T09:48:48.832Z,99842.16
2023-10-02T09:51:15.316Z,99846.09
2023-10-02T09:53:44.132Z,99841.09
2023-10-02T09:56:10.684Z,99842.50
2023-10-02T09:58:37.148Z,99842.38
2023-10-02T10:01:03.569Z,99840.16
2023-10-02T10:03:30.480Z,99839.63
2023-10-02T10:05:58.545Z,99830.34
2023-10-02T10:08:26.797Z,99835.69
2023-10-02T10:10:53.532Z,99818.56
2023-10-02T10:13:21.584Z,99809.28
2023-10-02T10:15:48.328Z,99819.00
2023-10-02T10:18:15.230Z,99814.25
2023-10-02T10:20:42.894Z,99817.38
2023-10-02T10:23:09.404Z,99809.00
2023-10-02T10:25:35.917Z,99811.69
2023-10-02T10:28:02.409Z,99807.63
2023-10-02T10:30:29.381Z,99816.22
2023-10-02T10:32:56.191Z,99802.50
2023-10-02T10:35:23.061Z,99800.84
2023-10-02T10:37:49.766Z,99803.09
2023-10-02T10:40:16.636Z,99806.31
2023-10-02T10:42:43.311Z,99801.72
2023-10-02T10:45:13.435Z,99799.16
2023-10-02T10:47:40.030Z,99806.03
2023-10-02T10:50:06.756Z,99802.66
2023-10-02T10:52:33.277Z,99792.50
2023-10-02T10:55:00.861Z,99785.47
2023-10-02T10:57:29.307Z,99789.28
2023-10-02T10:59:55.982Z,99783.22
2023-10-02T11:02:22.652Z,99782.66
2023-10-02T11:04:49.358Z,99777.59
2023-10-02T11:07:16.132Z,99776.34
2023-10-02T11:09:43.677Z,99767.44
2023-10-02T11:12:10.240Z,99765.19
2023-10-02T11:14:37.234Z,99768.56
2023-10-02T11:17:04.201Z,99754.59
2023-10-02T11:19:30.674Z,99757.00
2023-10-02T11:21:57.112Z,99757.28
2023-10-02T11:24:23.640Z,99752.91
2023-10-02T11:26:50.333Z,99745.47
2023-10-02T11:29:19.487Z,99749.84
2023-10-02T11:31:46.272Z,99748.88
2023-10-02T11:36:42.711Z,99744.03
2023-10-02T11:39:09.160Z,99733.28
2023-10-02T11:41:38.114Z,99735.56
2023-10-02T11:44:04.883Z,99733.44
2023-10-02T11:46:31.376Z,99723.97
2023-10-02T11:48:58.096Z,99730.19
2023-10-02T11:51:24.567Z,99725.91
2023-10-02T11:53:51.038Z,99723.34
2023-10-02T11:56:17.584Z,99728.13
2023-10-02T11:58:44.437Z,99719.09
2023-10-02T12:01:10.856Z,99722.75
2023-10-02T12:03:37.739Z,99718.94
2023-10-02T12:06:04.312Z,99711.13
2023-10-02T12:08:30.767Z,99711.69
2023-10-02T12:10:57.275Z,99704.47
2023-10-02T12:13:23.782Z,99699.34
2023-10-02T12:15:50.823Z,99695.66
2023-10-02T12:18:17.339Z,99692.13
2023-10-02T12:20:44.103Z,99697.28
2023-10-02T12:23:10.853Z,99693.59
2023-10-02T12:25:37.412Z,99686.63
2023-10-02T12:28:03.986Z,99690.59
2023-10-02T12:30:30.395Z,99690.56
2023-10-02T12:32:56.869Z,99691.72
2023-10-02T12:35:23.522Z,99679.53
2023-10-02T12:37:49.981Z,99684.31
2023-10-02T12:40:16.439Z,99682.00
2023-10-02T12:42:42.891Z,99679.16
2023-10-02T12:45:09.399Z,99676.16
2023-10-02T12:47:36.044Z,99677.00
2023-10-02T12:50:03.694Z,99666.09
2023-10-02T12:52:30.805Z,99670.13
2023-10-02T12:54:57.771Z,99656.56
2023-10-02T12:57:24.498Z,99664.97
2023-10-02T12:59:51.030Z,99661.66
2023-10-02T13:02:17.575Z,99659.34
2023-10-02T13:04:44.569Z,99660.72
2023-10-02T13:07:10.987Z,99649.56
2023-10-02T13:09:39.908Z,99651.72
2023-10-02T13:12:07.596Z,99655.41
2023-10-02T13:14:34.103Z,99651.50
2023-10-02T13:17:00.669Z,99638.09
2023-10-02T13:19:27.130Z,99633.56
2023-10-02T13:21:54.454Z,99636.00
2023-10-02T13:24:21.356Z,99636.19
2023-10-02T13:26:48.311Z,99629.00
2023-10-02T13:29:14.797Z,99633.22
2023-10-02T13:31:41.766Z,99624.22
2023-10-02T13:34:08.410Z,99612.50
2023-10-02T13:36:35.511Z,99609.47
2023-10-02T13:39:02.608Z,99607.47
2023-10-02T13:41:29.378Z,99608.78
2023-10-02T13:43:57.252Z,99603.94
2023-10-02T13:46:24.103Z,99602.34
2023-10-02T13:48:50.859Z,99603.69
2023-10-02T13:51:17.420Z,99610.09
2023-10-02T13:53:43.918Z,99602.88
2023-10-02T13:56:11.871Z,99601.53
2023-10-02T13:58:38.413Z,99591.63
2023-10-02T14:01:05.127Z,99596.56
2023-10-02T14:03:31.823Z,99599.59
2023-10-02T14:05:58.378Z,99594.19
2023-10-02T14:08:25.753Z,99592.25
2023-10-02T14:10:52.684Z,99590.81
2023-10-02T14:13:19.305Z,99585.94
2023-10-02T14:15:46.237Z,99593.03
2023-10-02T14:18:13.266Z,99589.97
2023-10-02T14:20:41.814Z,99582.06
2023-10-02T14:23:08.780Z,99591.84
2023-10-02T14:25:35.376Z,99584.75
2023-10-02T14:28:01.998Z,99578.91
2023-10-02T14:30:28.470Z,99580.75
2023-10-02T14:32:57.334Z,99582.09
2023-10-02T14:35:25.744Z,99584.44
2023-10-02T14:37:52.309Z,99577.03
2023-10-02T14:40:19.067Z,99574.66
2023-10-02T14:42:55.117Z,99568.09
2023-10-02T14:45:21.659Z,99570.31
2023-10-02T14:47:48.383Z,99568.97
2023-10-02T14:50:15.043Z,99566.91
2023-10-02T14:52:41.887Z,99567.75
2023-10-02T14:55:09.513Z,99568.75
2023-10-02T14:57:36.237Z,99569.28
2023-10-02T15:00:02.921Z,99571.47
2023-10-02T15:02:29.679Z,99575.50
2023-10-02T15:04:56.770Z,99576.66
2023-10-02T15:07:23.395Z,99573.94
2023-10-02T15:09:49.910Z,99565.16
2023-10-02T15:12:17.402Z,99572.25
2023-10-02T15:14:43.803Z,99573.44
2023-10-02T15:17:10.423Z,99573.91
2023-10-02T15:19:37.608Z,99560.25
2023-10-02T15:22:04.209Z,99569.19
2023-10-02T15:24:30.821Z,99567.69
2023-10-02T15:26:59.693Z,99572.59
2023-10-02T15:29:26.282Z,99567.72
2023-10-02T15:31:52.922Z,99566.22
2023-10-02T15:34:19.401Z,99563.53
2023-10-02T15:36:45.837Z,99556.47
2023-10-02T15:39:12.310Z,99553.97
2023-10-02T15:41:38.813Z,99555.44
2023-10-02T15:44:05.675Z,99557.81
2023-10-02T15:46:32.390Z,99553.59
2023-10-02T15:48:59.085Z,99557.31
2023-10-02T15:51:26.706Z,99550.75
2023-10-02T15:53:55.563Z,99558.16
2023-10-02T15:56:25.763Z,99556.16
2023-10-02T15:58:52.646Z,99567.56
2023-10-02T16:01:19.114Z,99562.19
2023-10-02T16:03:46.024Z,99566.91
2023-10-02T16:06:12.489Z,99562.53
2023-10-02T16:08:38.954Z,99559.50
2023-10-02T16:11:05.484Z,99557.13
2023-10-02T16:13:32.040Z,99565.56
2023-10-02T16:15:58.912Z,99558.47
2023-10-02T16:18:25.421Z,99557.13
2023-10-02T16:20:54.283Z,99561.50
2023-10-02T16:23:20.718Z,99560.84
2023-10-02T16:25:54.645Z,99564.69
2023-10-02T16:28:21.093Z,99569.56
2023-10-02T16:30:49.957Z,99566.16
2023-10-02T16:33:17.038Z,99563.97
2023-10-02T16:35:43.579Z,99565.81
2023-10-02T16:38:11.154Z,99569.84
2023-10-02T16:40:37.700Z,99568.50
2023-10-02T16:43:06.346Z,99577.59
2023-10-02T16:45:33.233Z,99570.84
2023-10-02T16:48:00.517Z,99575.91
2023-10-02T16:52:53.468Z,99576.59
2023-10-02T16:55:20.328Z,99579.97
2023-10-02T16:57:46.752Z,99570.50
2023-10-02T17:00:13.526Z,99578.09
2023-10-02T17:02:40.281Z,99576.56
2023-10-02T17:05:10.216Z,99578.91
2023-10-02T17:07:37.792Z,99578.03
2023-10-02T17:10:04.799Z,99577.66
2023-10-02T17:12:31.418Z,99574.13
2023-10-02T17:14:58.214Z,99571.09
2023-10-02T17:17:24.958Z,99573.78
2023-10-02T17:19:51.493Z,99581.50
2023-10-02T17:22:18.361Z,99569.94
2023-10-02T17:27:25.695Z,99573.25
2023-10-02T17:29:53.699Z,99571.25
2023-10-02T17:32:20.950Z,99571.81
2023-10-02T17:34:48.074Z,99579.97
2023-10-02T17:37:15.333Z,99567.50
2023-10-02T17:39:42.631Z,99571.34
2023-10-02T17:42:10.494Z,99575.19
2023-10-02T17:44:39.127Z,99570.81
2023-10-02T17:47:06.527Z,99571.81
2023-10-02T17:49:33.918Z,99571.13
2023-10-02T17:52:05.362Z,99580.91
2023-10-02T17:54:32.823Z,99581.22
2023-10-02T17:57:04.732Z,99583.53
2023-10-02T17:59:31.996Z,99582.50
2023-10-02T18:01:59.496Z,99580.81
2023-10-02T18:04:26.966Z,99578.56
2023-10-02T18:06:54.355Z,99580.72
2023-10-02T18:09:21.762Z,99577.63
2023-10-02T18:11:49.167Z,99579.47
2023-10-02T18:14:16.808Z,99586.81
2023-10-02T18:16:44.104Z,99583.75
2023-10-02T18:19:11.435Z,99581.38
2023-10-02T18:21:38.990Z,99579.69
2023-10-02T18:24:08.803Z,99584.59
2023-10-02T18:26:36.112Z,99589.97
2023-10-02T18:29:03.678Z,99592.50
2023-10-02T18:31:31.219Z,99577.53
2023-10-02T18:33:58.519Z,99576.69
2023-10-02T18:36:25.934Z,99584.22
2023-10-02T18:38:53.237Z,99584.38
2023-10-02T18:41:20.630Z,99593.75
2023-10-02T18:43:48.093Z,99579.22
2023-10-02T18:46:15.387Z,99587.88
2023-10-02T18:48:45.744Z,99582.81
2023-10-02T18:51:13.058Z,99591.03
2023-10-02T18:53:40.577Z,99590.19
2023-10-02T18:56:08.091Z,99579.03
2023-10-02T18:58:35.499Z,99576.97
2023-10-02T19:01:03.468Z,99579.88
2023-10-02T19:03:31.020Z,99583.28
2023-10-02T19:05:58.450Z,99588.34
2023-10-02T19:08:26.766Z,99583.69
2023-10-02T19:10:54.117Z,99583.06
2023-10-02T19:13:22.055Z,99581.69
2023-10-02T19:15:49.510Z,99581.22
2023-10-02T19:18:16.932Z,99574.88
2023-10-02T19:20:44.731Z,99578.41
2023-10-02T19:23:12.192Z,99574.03
2023-10-02T19:25:39.785Z,99569.78
2023-10-02T19:28:07.047Z,99575.78
2023-10-02T19:30:34.408Z,99574.25
2023-10-02T19:33:01.907Z,99571.56
2023-10-02T19:35:29.334Z,99573.53
2023-10-02T19:37:56.700Z,99573.81
2023-10-02T19:40:24.020Z,99572.13
2023-10-02T19:42:54.314Z,99574.13
2023-10-02T19:45:21.802Z,99571.00
2023-10-02T19:47:54.786Z,99570.91
2023-10-02T19:50:22.054Z,99572.22
2023-10-02T19:52:49.746Z,99569.38
2023-10-02T19:55:17.013Z,99573.91
2023-10-02T19:57:44.349Z,99567.16
2023-10-02T20:00:12.044Z,99567.44
2023-10-02T20:02:39.743Z,99558.69
2023-10-02T20:05:09.392Z,99561.69
2023-10-02T20:07:38.247Z,99566.34
2023-10-02T20:10:05.563Z,99571.00
2023-10-02T20:12:34.106Z,99563.38
2023-10-02T20:15:01.344Z,99556.47
2023-10-02T20:17:28.854Z,99561.03
2023-10-02T20:19:56.742Z,99558.66
2023-10-02T20:22:23.950Z,99558.81
2023-10-02T20:24:52.552Z,99558.66
2023-10-02T20:27:20.705Z,99555.84
2023-10-02T20:29:50.024Z,99558.81
2023-10-02T20:32:18.192Z,99557.56
2023-10-02T20:34:45.058Z,99562.09
2023-10-02T20:37:11.583Z,99554.72
2023-10-02T20:39:38.464Z,99550.63
2023-10-02T20:42:05.376Z,99556.88
2023-10-02T20:44:32.076Z,99550.13
2023-10-02T20:47:11.497Z,99541.66
2023-10-02T20:49:41.573Z,99543.19
2023-10-02T20:52:08.317Z,99542.66
2023-10-02T20:54:34.713Z,99539.97
2023-10-02T20:57:01.108Z,99546.19
2023-10-02T20:59:27.602Z,99539.25
2023-10-02T21:02:01.212Z,99538.41
2023-10-02T21:04:27.995Z,99542.09
2023-10-02T21:06:54.486Z,99534.66
2023-10-02T21:09:20.930Z,99537.75
2023-10-02T21:11:47.609Z,99534.63
2023-10-02T21:14:16.749Z,99537.47
2023-10-02T21:16:43.409Z,99535.63
2023-10-02T21:19:10.012Z,99535.75
2023-10-02T21:21:36.466Z,99533.22
2023-10-02T21:24:02.857Z,99529.16
2023-10-02T21:26:29.605Z,99535.19
2023-10-02T21:28:57.123Z,99538.88
2023-10-02T21:31:23.988Z,99534.34
2023-10-02T21:33:50.497Z,99538.03
2023-10-02T21:36:17.064Z,99531.22
2023-10-02T21:38:43.770Z,99528.69
2023-10-02T21:41:10.269Z,99525.31
2023-10-02T21:43:36.805Z,99526.16
2023-10-02T21:46:03.288Z,99537.16
2023-10-02T21:48:29.794Z,99533.34
2023-10-02T21:50:56.282Z,99524.44
2023-10-02T21:53:22.732Z,99528.13
2023-10-02T21:55:49.240Z,99532.34
2023-10-02T21:58:15.882Z,99534.59
2023-10-02T22:00:42.473Z,99537.44
2023-10-02T22:03:09.186Z,99528.69
2023-10-02T22:05:35.730Z,99534.31
2023-10-02T22:08:02.345Z,99530.66
2023-10-02T22:10:28.963Z,99527.28
2023-10-02T22:12:56.142Z,99525.59
2023-10-02T22:15:22.611Z,99530.25
2023-10-02T22:17:49.671Z,99525.31
2023-10-02T22:20:16.484Z,99528.69
2023-10-02T22:22:43.491Z,99527.97
2023-10-02T22:25:09.950Z,99525.44
2023-10-02T22:27:38.617Z,99514.88
2023-10-02T22:30:05.019Z,99517.13
2023-10-02T22:32:31.563Z,99513.16
2023-10-02T22:35:01.112Z,99517.66
2023-10-02T22:37:27.793Z,99513.16
2023-10-02T22:39:54.563Z,99510.91
2023-10-02T22:42:20.977Z,99505.78
2023-10-02T22:44:50.419Z,99510.16
2023-10-02T22:47:16.885Z,99513.38
2023-10-02T22:49:43.328Z,99518.28
2023-10-02T22:52:10.025Z,99510.38
2023-10-02T22:54:36.443Z,99510.53
2023-10-02T22:57:03.474Z,99514.47
2023-10-02T22:59:30.148Z,99516.44
2023-10-02T23:01:56.568Z,99516.56
2023-10-02T23:04:23.037Z,99510.38
2023-10-02T23:06:49.476Z,99505.28
2023-10-02T23:09:15.900Z,99506.28
2023-10-02T23:11:42.668Z,99502.03
2023-10-02T23:14:09.407Z,99498.66
2023-10-02T23:16:35.822Z,99491.56
2023-10-02T23:19:04.462Z,99492.13
2023-10-02T23:21:31.019Z,99488.44
2023-10-02T23:23:57.436Z,99485.91
2023-10-02T23:26:24.224Z,99489.28
2023-10-02T23:28:51.688Z,99484.91
2023-10-02T23:31:25.501Z,99485.63
2023-10-02T23:33:52.035Z,99475.91
2023-10-02T23:36:18.470Z,99481.75
2023-10-02T23:38:47.003Z,99479.91
2023-10-02T23:41:13.530Z,99472.00
2023-10-02T23:43:40.339Z,99473.59
2023-10-02T23:46:07.066Z,99475.41
2023-10-02T23:48:34.600Z,99471.03
2023-10-02T23:51:01.114Z,99467.25
2023-10-02T23:53:27.749Z,99469.22
2023-10-02T23:55:54.136Z,99467.50
2023-10-02T23:58:20.570Z,99464.09
